This is the latest recevied weather packets stored in our database for station/object DH6SC. If no packets are shown the sender has not sent any weather packets the latest 10 day(s).
| Time | Temp. | Humidity | Pressure | Rain* | Wind** | Luminosity | Snow |
|---|---|---|---|---|---|---|---|
| 1777822800 | 22.78° C | 60% | 1014.4 hPa | - | - | - | - |
| 1777814368 | 22.22° C | 60% | 1015.8 hPa | - | - | - | - |
| 1777811986 | 21.67° C | 60% | 1016.1 hPa | - | - | - | - |
| 1777811391 | 21.67° C | 60% | 1016.2 hPa | - | - | - | - |
| 1777809001 | 21.67° C | 60% | 1016.6 hPa | - | - | - | - |
| 1777806003 | 21.11° C | 60% | 1017.1 hPa | - | - | - | - |
| 1777801791 | 20.56° C | 61% | 1017.9 hPa | - | - | - | - |
| 1777800000 | 20.56° C | 61% | 1018.2 hPa | - | - | - | - |
| 1777798202 | 20.56° C | 61% | 1018.2 hPa | - | - | - | - |
| 1777797584 | 20.56° C | 61% | 1018.3 hPa | - | - | - | - |
| 1777795797 | 20.56° C | 62% | 1018.5 hPa | - | - | - | - |
| 1777794597 | 20.56° C | 62% | 1018.4 hPa | - | - | - | - |
| 1777789791 | 20.56° C | 62% | 1018.4 hPa | - | - | - | - |
| 1777780186 | 21.11° C | 62% | 1018 hPa | - | - | - | - |
| 1777776600 | 21.11° C | 62% | 1018.1 hPa | - | - | - | - |
| 1777773596 | 21.11° C | 62% | 1018 hPa | - | - | - | - |
| 1777773001 | 21.11° C | 62% | 1018 hPa | - | - | - | - |
| 1777760977 | 22.22° C | 62% | 1018.8 hPa | - | - | - | - |
| 1777760382 | 22.22° C | 62% | 1018.8 hPa | - | - | - | - |
| 1777754387 | 22.78° C | 62% | 1018.9 hPa | - | - | - | - |
| 1777745401 | 22.78° C | 61% | 1018.7 hPa | - | - | - | - |
| 1777728601 | 21.11° C | 60% | 1021.7 hPa | - | - | - | - |
| 1777726196 | 21.11° C | 60% | 1022.2 hPa | - | - | - | - |
| 1777725601 | 21.11° C | 60% | 1022.4 hPa | - | - | - | - |
| 1777723205 | 20.56° C | 60% | 1022.9 hPa | - | - | - | - |
* Rain since midnight (hover to see other rain measurements)
** Current wind speed in m/s (hover to see current wind gust speed)